Jhelum Weather



Jhelum's Current Weather

Temprature 25.65o clear sky

clear sky

Rain: 0 %

Min Temprature25.65o
Max Temprature25.65o
Humidity66
Wind Speed1.52 m/h
Sun Rise05:55:32
Sun Set17:57:33
Current Time: 26-Sep-2022 08:31:02
Lat/Lon: 32.9331, 73.7264




Jhelum's Geo Location



Jhelum's Weather Forecast

Time Overall Temp Min Temp Max Temp Humidity Wind Speed Rain
26-Sep-2022 (Mon)
11:00:00 clear sky 25.660 25.660 28.690 67 1.29 m/h 0 %
14:00:00 clear sky 29.150 29.150 31.650 54 1.59 m/h 0 %
17:00:00 clear sky 31.580 31.580 31.580 49 1.01 m/h 0 %
20:00:00 clear sky 27.350 27.350 27.350 58 1.1 m/h 0 %
23:00:00 clear sky 25.960 25.960 25.960 62 0.4 m/h 0 %
27-Sep-2022 (Tue)
02:00:00 clear sky 24.830 24.830 24.830 66 1.35 m/h 0 %
05:00:00 clear sky 23.810 23.810 23.810 70 1.05 m/h 0 %
08:00:00 clear sky 26.030 26.030 26.030 64 1.86 m/h 0 %
11:00:00 clear sky 30.230 30.230 30.230 51 1.65 m/h 0 %
14:00:00 clear sky 32.550 32.550 32.550 43 1.41 m/h 0 %
17:00:00 clear sky 32.240 32.240 32.240 47 1 m/h 0 %
20:00:00 clear sky 28.660 28.660 28.660 54 1.6 m/h 0 %
23:00:00 clear sky 27.010 27.010 27.010 60 1.79 m/h 0 %
28-Sep-2022 (Wed)
02:00:00 clear sky 25.130 25.130 25.130 70 1.85 m/h 0 %
05:00:00 clear sky 24.390 24.390 24.390 74 1.21 m/h 0 %
08:00:00 clear sky 26.710 26.710 26.710 66 1.55 m/h 0 %
11:00:00 clear sky 31.070 31.070 31.070 51 2.27 m/h 0 %
14:00:00 clear sky 33.400 33.400 33.400 41 1.36 m/h 0 %
17:00:00 clear sky 33.040 33.040 33.040 46 0.68 m/h 0 %
20:00:00 clear sky 29.350 29.350 29.350 51 1.05 m/h 0 %
23:00:00 clear sky 27.380 27.380 27.380 59 1.35 m/h 0 %
29-Sep-2022 (Thu)
02:00:00 clear sky 25.830 25.830 25.830 66 1.16 m/h 0 %
05:00:00 clear sky 24.860 24.860 24.860 71 1.28 m/h 0 %
08:00:00 light rain 27.170 27.170 27.170 64 1.72 m/h 17 %
11:00:00 clear sky 31.320 31.320 31.320 50 1.4 m/h 0 %
14:00:00 clear sky 33.840 33.840 33.840 40 1.4 m/h 0 %
17:00:00 clear sky 33.530 33.530 33.530 43 1.25 m/h 0 %
20:00:00 clear sky 29.750 29.750 29.750 50 0.85 m/h 0 %
23:00:00 clear sky 27.650 27.650 27.650 56 2.28 m/h 0 %
30-Sep-2022 (Fri)
02:00:00 clear sky 26.080 26.080 26.080 62 0.15 m/h 0 %
05:00:00 clear sky 25.130 25.130 25.130 65 0.55 m/h 0 %
08:00:00 clear sky 27.460 27.460 27.460 59 1.5 m/h 0 %
11:00:00 clear sky 31.790 31.790 31.790 45 1.32 m/h 0 %
14:00:00 clear sky 34.440 34.440 34.440 36 2.01 m/h 0 %
17:00:00 clear sky 33.650 33.650 33.650 41 1.14 m/h 0 %
20:00:00 clear sky 29.860 29.860 29.860 46 1.27 m/h 0 %
23:00:00 clear sky 27.780 27.780 27.780 53 1.56 m/h 0 %
01-Oct-2022 (Sat)
02:00:00 clear sky 25.880 25.880 25.880 62 1.44 m/h 0 %
05:00:00 clear sky 24.790 24.790 24.790 67 1.04 m/h 0 %
08:00:00 clear sky 27.410 27.410 27.410 58 1.48 m/h 0 %

Famous Cities (61)